Lakerlopen, Netherlands
Current Conditions -  °F | °C
As of 5:02 PM on Thursday 29 Jan 2015 (Local Time) from EHEH Reporting Station
Overcast Overcast  
Wind Chill: 31°   Ceiling: 3600
Heat Index: 39°   Visibility: 6mi
Dew Point: 34°   Wind: 15mph
Humidity: 81%   Direction: 220°SW
Pressure: 28.88"   Gusts: NA
Location:  51.44°N, 5.5°E
Report Text: EHEH 291602Z AUTO 22013KT 9999 FEW022 SCT031 OVC036 04/01 Q0978 BLU 22015KT 9999 FEW018 SCT022 BKN025
Loading
Personal Weather Stations






























Interactive Weather Map New forecast layout! Learn more

10-Day Weather Forecast

Advertisements
Track Severe Weather on mobile